Chillicothe, Ohio
Current Conditions -  °F | °C
As of 1:15 PM on Saturday 25 Oct 2014 (Local Time) from KRZT Reporting Station
Overcast Overcast  
Wind Chill: 64°   Ceiling: 2800
Heat Index: 64°   Visibility: 10mi
Dew Point: 50°   Wind: 9mph
Humidity: 59%   Direction: 260°W
Pressure: 29.93"   Gusts: NA
Location:  39.34°N, 82.97°W
Report Text: KRZT 251715Z AUTO 26008KT 10SM OVC028 18/10 A2993 RMK AO2
Loading
Personal Weather Stations






























Interactive Weather Map
Tropical Storm Tracking
New forecast layout! Learn more

10-Day Weather Forecast

Advertisements
Track Severe Weather on mobile